Time;durP1;ratioP1;P1;durP2;ratioP2;P2;SDS_P1;SDS_P2;PMS_P1;PMS_P2;Temp;Humidity;BMP_temperature;BMP_pressure;BME280_temperature;BME280_humidity;BME280_pressure;Samples;Min_cycle;Max_cycle;Signal;HPM_P1;HPM_P2
2022/09/29 00:01:24;;;;;;;17.95;5.68;;;409.70;2355.20;;;;;;5052257;28;20055;-79
2022/09/29 00:03:50;;;;;;;14.15;6.43;;;409.80;2355.20;;;;;;5052214;28;20032;-80
2022/09/29 00:06:17;;;;;;;11.50;6.03;;;409.90;2355.20;;;;;;5051760;28;20033;-80
2022/09/29 00:08:44;;;;;;;16.52;6.60;;;409.80;2355.20;;;;;;5052178;28;20377;-79
2022/09/29 00:11:13;;;;;;;12.60;5.55;;;409.90;2355.20;;;;;;5052175;28;20033;-79
2022/09/29 00:13:39;;;;;;;11.90;5.85;;;410.00;2355.20;;;;;;5053090;28;20355;-80
2022/09/29 00:16:05;;;;;;;16.73;6.60;;;410.00;2355.20;;;;;;5085708;28;20061;-80
2022/09/29 00:18:33;;;;;;;15.75;7.28;;;409.90;2355.20;;;;;;5055817;28;20489;-80
2022/09/29 00:21:07;;;;;;;12.23;5.82;;;410.00;2355.20;;;;;;5057202;28;20028;-79
2022/09/29 00:23:34;;;;;;;14.23;6.55;;;410.00;2355.20;;;;;;5056255;28;20490;-79
2022/09/29 00:26:06;;;;;;;15.85;6.13;;;409.70;2355.20;;;;;;5037314;28;20428;-79
2022/09/29 00:28:34;;;;;;;17.08;9.15;;;409.90;2355.20;;;;;;5036561;28;20438;-79
2022/09/29 00:31:02;;;;;;;16.38;8.15;;;409.90;2355.20;;;;;;5034712;28;20034;-79
2022/09/29 00:33:30;;;;;;;15.32;5.50;;;409.90;2355.20;;;;;;5024078;28;20022;-79
2022/09/29 00:36:03;;;;;;;12.45;5.20;;;410.00;2355.20;;;;;;5017435;28;20026;-79
2022/09/29 00:38:29;;;;;;;18.40;4.97;;;410.00;2355.20;;;;;;5016091;28;20080;-79
2022/09/29 00:40:55;;;;;;;13.05;6.97;;;410.30;2355.20;;;;;;5015837;28;20434;-79
2022/09/29 00:43:25;;;;;;;15.57;9.00;;;409.80;2355.20;;;;;;5020457;28;20045;-79
2022/09/29 00:45:53;;;;;;;17.00;9.18;;;409.90;2355.20;;;;;;5032407;28;20029;-79
2022/09/29 00:48:31;;;;;;;21.67;10.20;;;409.60;2355.20;;;;;;5033948;28;20034;-78
2022/09/29 00:50:58;;;;;;;17.77;9.60;;;409.60;2355.20;;;;;;5057667;28;20021;-78
2022/09/29 00:53:26;;;;;;;16.88;7.60;;;409.70;2355.20;;;;;;5041983;28;20026;-79
2022/09/29 00:56:14;;;;;;;16.92;8.18;;;409.70;2355.20;;;;;;5044761;28;20030;-79
2022/09/29 00:58:53;;;;;;;18.63;8.35;;;409.60;2355.20;;;;;;5032345;28;20032;-80
2022/09/29 01:01:25;;;;;;;19.83;7.97;;;409.60;2355.20;;;;;;5032268;28;20022;-79
2022/09/29 01:03:55;;;;;;;17.90;7.82;;;384.90;2329.60;;;;;;5032196;28;20025;-79
2022/09/29 01:06:35;;;;;;;13.35;7.50;;;384.90;2329.60;;;;;;5016939;28;20037;-79
2022/09/29 01:09:05;;;;;;;16.30;7.63;;;409.60;2355.20;;;;;;5031890;28;20026;-79
2022/09/29 01:11:31;;;;;;;16.65;8.18;;;409.70;2355.20;;;;;;5049124;28;20365;-79
2022/09/29 01:14:02;;;;;;;14.55;8.68;;;409.70;2355.20;;;;;;5016786;28;20022;-79
2022/09/29 01:16:33;;;;;;;16.40;8.45;;;409.60;2355.20;;;;;;5031715;28;20041;-79
2022/09/29 01:19:01;;;;;;;16.20;9.75;;;409.60;2355.20;;;;;;5031886;28;20029;-79
2022/09/29 01:21:39;;;;;;;23.85;9.95;;;409.60;2355.20;;;;;;5016652;28;20025;-79
2022/09/29 01:24:18;;;;;;;23.33;10.18;;;384.70;2329.60;;;;;;5031653;28;20026;-79
2022/09/29 01:26:59;;;;;;;20.27;9.52;;;384.80;2329.60;;;;;;5015333;28;20087;-79
2022/09/29 01:29:30;;;;;;;18.77;10.40;;;384.90;2329.60;;;;;;5031706;28;20018;-79
2022/09/29 01:32:20;;;;;;;16.35;8.38;;;384.90;2329.60;;;;;;5015983;28;20101;-79
2022/09/29 01:34:59;;;;;;;13.40;7.68;;;384.90;2329.60;;;;;;5031735;28;20116;-79
2022/09/29 01:38:06;;;;;;;17.88;8.32;;;384.90;2329.60;;;;;;5031299;28;20467;-79
2022/09/29 01:40:53;;;;;;;16.27;7.78;;;409.60;2355.20;;;;;;5014110;28;20419;-79
2022/09/29 01:44:00;;;;;;;18.50;7.40;;;384.90;2329.60;;;;;;5031323;28;20061;-79
2022/09/29 01:46:32;;;;;;;19.60;7.90;;;409.60;2355.20;;;;;;5030722;28;20042;-79
2022/09/29 01:49:00;;;;;;;;;;;384.90;2329.60;;;;;;5015439;28;20022;-79
2022/09/29 01:52:04;;;;;;;17.02;7.93;;;384.90;2329.60;;;;;;5015603;28;20025;-79
2022/09/29 01:54:47;;;;;;;17.58;8.40;;;384.80;2329.60;;;;;;4997201;28;20030;-79
2022/09/29 01:57:25;;;;;;;23.95;8.90;;;384.70;2329.60;;;;;;5015855;28;20135;-79
2022/09/29 02:00:11;;;;;;;22.75;9.80;;;384.80;2329.60;;;;;;5015734;28;20033;-79
2022/09/29 02:02:49;;;;;;;18.33;8.40;;;384.60;2329.60;;;;;;5016276;28;20109;-79
2022/09/29 02:05:31;;;;;;;20.77;7.63;;;384.60;2329.60;;;;;;5017387;28;20111;-79
2022/09/29 02:08:00;;;;;;;;;;;384.60;2329.60;;;;;;5035621;28;20037;-79
2022/09/29 02:10:33;;;;;;;13.60;6.40;;;384.60;2329.60;;;;;;5066865;28;20362;-79
2022/09/29 02:13:03;;;;;;;14.32;6.50;;;384.60;2329.60;;;;;;5032406;28;20330;-79
2022/09/29 02:15:33;;;;;;;12.13;6.35;;;384.60;2329.60;;;;;;5034254;28;20030;-79
2022/09/29 02:18:11;;;;;;;16.98;7.95;;;384.70;2329.60;;;;;;5035469;28;20021;-79
2022/09/29 02:20:36;;;;;;;19.88;9.30;;;384.70;2329.60;;;;;;5035185;28;20093;-79
2022/09/29 02:23:02;;;;;;;19.10;9.07;;;384.80;2329.60;;;;;;5034023;28;20234;-79
2022/09/29 02:25:28;;;;;;;17.42;7.13;;;384.80;2329.60;;;;;;5035014;28;20045;-79
2022/09/29 02:27:54;;;;;;;15.07;8.25;;;384.70;2329.60;;;;;;5018655;28;20034;-79
2022/09/29 02:30:20;;;;;;;15.93;8.18;;;384.50;2329.60;;;;;;5013795;28;20101;-79
2022/09/29 02:32:46;;;;;;;15.60;7.05;;;384.40;2329.60;;;;;;5012225;28;20040;-80
2022/09/29 02:35:14;;;;;;;17.77;7.43;;;384.50;2329.60;;;;;;5015558;28;20057;-77
2022/09/29 02:38:04;;;;;;;17.13;7.22;;;384.30;2329.60;;;;;;5015184;28;20053;-77
2022/09/29 02:40:40;;;;;;;16.85;6.72;;;384.30;2329.60;;;;;;5014154;28;20424;-79
2022/09/29 02:43:57;;;;;;;17.88;7.43;;;384.40;2329.60;;;;;;5020836;28;20081;-79
2022/09/29 02:46:29;;;;;;;12.43;6.82;;;384.50;2329.60;;;;;;5021818;28;20073;-79
2022/09/29 02:49:16;;;;;;;13.73;5.97;;;384.60;2329.60;;;;;;5034265;28;20029;-79
2022/09/29 02:51:49;;;;;;;13.25;6.38;;;384.40;2329.60;;;;;;5035012;28;20679;-79
2022/09/29 02:54:24;;;;;;;17.17;5.95;;;384.40;2329.60;;;;;;5034507;28;20075;-79
2022/09/29 02:56:53;;;;;;;13.43;6.20;;;384.60;2329.60;;;;;;5033400;28;20033;-79
2022/09/29 02:59:49;;;;;;;14.35;5.32;;;384.70;2329.60;;;;;;5034301;28;20025;-79
2022/09/29 03:02:21;;;;;;;18.48;5.97;;;384.60;2329.60;;;;;;5033971;28;20426;-79
2022/09/29 03:04:47;;;;;;;10.65;4.47;;;384.70;2329.60;;;;;;5033271;28;20056;-79
2022/09/29 03:07:13;;;;;;;12.25;4.40;;;384.80;2329.60;;;;;;5033190;28;20454;-79
2022/09/29 03:09:39;;;;;;;9.60;3.92;;;384.90;2329.60;;;;;;5032925;28;20116;-79
2022/09/29 03:12:04;;;;;;;11.07;4.57;;;384.90;2329.60;;;;;;5034095;28;20022;-79
2022/09/29 03:14:30;;;;;;;8.55;4.25;;;384.90;2329.60;;;;;;5033063;28;20383;-79
2022/09/29 03:16:56;;;;;;;7.75;4.50;;;409.60;2355.20;;;;;;5032784;28;20079;-79
2022/09/29 03:19:22;;;;;;;9.98;4.53;;;409.60;2355.20;;;;;;5033030;28;20121;-79
2022/09/29 03:21:48;;;;;;;14.73;5.13;;;409.60;2355.20;;;;;;5032618;28;20103;-79
2022/09/29 03:24:14;;;;;;;9.25;5.28;;;409.70;2355.20;;;;;;5032923;28;20061;-78
2022/09/29 03:26:39;;;;;;;13.02;5.00;;;409.70;2355.20;;;;;;5032902;28;20061;-79
2022/09/29 03:29:06;;;;;;;12.23;5.47;;;409.60;2355.20;;;;;;5032539;28;20025;-79
2022/09/29 03:31:31;;;;;;;15.45;5.68;;;409.70;2355.20;;;;;;5032947;28;20025;-79
2022/09/29 03:33:57;;;;;;;10.80;5.30;;;409.70;2355.20;;;;;;5050025;28;20391;-78
2022/09/29 03:36:23;;;;;;;12.93;5.20;;;409.70;2355.20;;;;;;5035684;28;20090;-79
2022/09/29 03:38:49;;;;;;;9.25;4.25;;;409.70;2355.20;;;;;;5052481;28;20021;-79
2022/09/29 03:41:15;;;;;;;10.13;4.13;;;409.70;2355.20;;;;;;5035489;28;20035;-82
2022/09/29 03:43:41;;;;;;;9.00;3.95;;;409.70;2355.20;;;;;;5035339;28;20090;-79
2022/09/29 03:46:06;;;;;;;15.57;4.05;;;409.70;2355.20;;;;;;5035874;28;20494;-79
2022/09/29 03:48:34;;;;;;;11.75;3.22;;;409.70;2355.20;;;;;;5053587;28;20033;-79
2022/09/29 03:51:00;;;;;;;8.63;3.10;;;409.70;2355.20;;;;;;5068815;28;20394;-79
2022/09/29 03:53:26;;;;;;;8.23;3.20;;;409.80;2355.20;;;;;;5034960;28;20500;-79
2022/09/29 03:55:52;;;;;;;6.22;3.40;;;409.80;2355.20;;;;;;5035865;28;20119;-78
2022/09/29 03:58:18;;;;;;;11.75;4.22;;;409.80;2355.20;;;;;;5035459;28;20455;-79
2022/09/29 04:00:45;;;;;;;10.50;5.13;;;409.80;2355.20;;;;;;5035672;28;20078;-79
2022/09/29 04:03:11;;;;;;;12.02;4.47;;;409.80;2355.20;;;;;;5035683;28;20463;-79
2022/09/29 04:05:38;;;;;;;8.82;3.58;;;409.60;2355.20;;;;;;5035257;28;20044;-79
2022/09/29 04:08:04;;;;;;;10.50;4.20;;;409.70;2355.20;;;;;;5035712;28;20032;-79
2022/09/29 04:10:34;;;;;;;11.15;4.32;;;409.70;2355.20;;;;;;5035553;28;20028;-79
2022/09/29 04:13:00;;;;;;;11.57;4.18;;;409.80;2355.20;;;;;;5053480;28;20029;-79
2022/09/29 04:15:25;;;;;;;8.10;3.40;;;409.80;2355.20;;;;;;5053369;28;20028;-79
2022/09/29 04:17:51;;;;;;;8.15;3.35;;;409.80;2355.20;;;;;;5034966;28;20538;-79
2022/09/29 04:20:17;;;;;;;10.65;3.97;;;409.80;2355.20;;;;;;5053146;28;20025;-79
2022/09/29 04:22:43;;;;;;;7.57;3.97;;;409.80;2355.20;;;;;;5035417;28;20057;-79
2022/09/29 04:25:09;;;;;;;9.38;3.72;;;409.90;2355.20;;;;;;5035143;28;20108;-79
2022/09/29 04:27:35;;;;;;;7.38;3.88;;;409.70;2355.20;;;;;;5053366;28;20029;-79
2022/09/29 04:30:00;;;;;;;9.55;3.67;;;409.80;2355.20;;;;;;5035340;28;20064;-79
2022/09/29 04:32:26;;;;;;;8.75;4.10;;;409.70;2355.20;;;;;;5035129;28;20025;-79
2022/09/29 04:34:52;;;;;;;11.40;5.03;;;409.70;2355.20;;;;;;5068698;28;20548;-79
2022/09/29 04:37:18;;;;;;;11.32;5.18;;;409.70;2355.20;;;;;;5053549;28;20028;-79
2022/09/29 04:39:43;;;;;;;11.40;4.35;;;409.80;2355.20;;;;;;5034957;28;20021;-79
2022/09/29 04:42:09;;;;;;;12.23;6.85;;;409.90;2355.20;;;;;;5068615;28;20025;-79
2022/09/29 04:44:35;;;;;;;14.63;6.95;;;409.90;2355.20;;;;;;5035138;28;20137;-79
2022/09/29 04:47:01;;;;;;;12.07;6.85;;;409.90;2355.20;;;;;;5034884;28;20033;-79
2022/09/29 04:49:27;;;;;;;25.52;15.55;;;410.00;2355.20;;;;;;5052788;28;20025;-79
2022/09/29 04:51:52;;;;;;;26.27;12.65;;;409.90;2355.20;;;;;;5035353;28;20025;-78
2022/09/29 04:54:18;;;;;;;25.33;12.85;;;409.80;2355.20;;;;;;5034892;28;20075;-79
2022/09/29 04:56:47;;;;;;;17.67;12.27;;;409.80;2355.20;;;;;;5035255;28;20033;-79
2022/09/29 04:59:13;;;;;;;13.60;7.43;;;409.90;2355.20;;;;;;5053091;28;20074;-79
2022/09/29 05:01:39;;;;;;;14.35;6.63;;;409.80;2355.20;;;;;;5034939;28;20029;-79
2022/09/29 05:04:06;;;;;;;13.35;6.40;;;409.80;2355.20;;;;;;5036495;28;20032;-80
2022/09/29 05:06:32;;;;;;;17.40;6.50;;;409.70;2355.20;;;;;;5037433;28;20091;-79
2022/09/29 05:08:58;;;;;;;14.27;6.60;;;409.70;2355.20;;;;;;5038425;28;20462;-79
2022/09/29 05:11:24;;;;;;;14.02;7.57;;;409.80;2355.20;;;;;;5037582;28;20071;-79
2022/09/29 05:13:49;;;;;;;18.27;8.10;;;409.70;2355.20;;;;;;5056626;28;20413;-79
2022/09/29 05:16:16;;;;;;;16.70;8.48;;;409.70;2355.20;;;;;;5038665;28;20470;-80
2022/09/29 05:18:41;;;;;;;19.10;10.23;;;384.90;2329.60;;;;;;5071541;28;20021;-79
2022/09/29 05:21:08;;;;;;;12.60;7.63;;;409.60;2355.20;;;;;;5056183;28;20029;-80
2022/09/29 05:23:34;;;;;;;18.27;8.00;;;409.60;2355.20;;;;;;5053521;28;20013;-78
2022/09/29 05:26:05;;;;;;;16.27;7.53;;;409.60;2355.20;;;;;;5063938;28;20032;-79
2022/09/29 05:28:31;;;;;;;14.68;8.82;;;409.70;2355.20;;;;;;5078691;28;20009;-79
2022/09/29 05:31:05;;;;;;;17.45;10.23;;;409.70;2355.20;;;;;;5038476;28;20024;-79
2022/09/29 05:33:31;;;;;;;16.38;10.20;;;410.00;2355.20;;;;;;5036686;28;20090;-78
2022/09/29 05:35:57;;;;;;;14.65;9.20;;;409.80;2355.20;;;;;;5037938;28;20072;-79
2022/09/29 05:38:24;;;;;;;17.67;7.90;;;409.90;2355.20;;;;;;5054768;28;20060;-80
2022/09/29 05:40:51;;;;;;;17.10;8.02;;;410.00;2355.20;;;;;;5056491;28;20082;-79
2022/09/29 05:43:18;;;;;;;10.80;6.25;;;410.00;2355.20;;;;;;5037569;28;20084;-79
2022/09/29 05:45:43;;;;;;;11.38;5.43;;;410.10;2355.20;;;;;;5038094;28;20078;-79
2022/09/29 05:48:09;;;;;;;11.48;6.00;;;410.20;2355.20;;;;;;5054620;28;20029;-79
2022/09/29 05:50:42;;;;;;;11.15;6.30;;;410.30;2355.20;;;;;;5055979;28;20025;-79
2022/09/29 05:53:08;;;;;;;;;;;410.30;2355.20;;;;;;5056119;28;20053;-79
2022/09/29 05:55:35;;;;;;;13.40;6.40;;;410.30;2355.20;;;;;;5056165;28;20369;-79
2022/09/29 05:58:01;;;;;;;10.73;5.53;;;410.30;2355.20;;;;;;5037565;28;20028;-79
2022/09/29 06:00:27;;;;;;;10.85;4.85;;;410.30;2355.20;;;;;;5055493;28;20083;-78
2022/09/29 06:02:53;;;;;;;16.95;6.05;;;410.20;2355.20;;;;;;5070872;28;20041;-80
2022/09/29 06:05:19;;;;;;;11.23;5.68;;;410.30;2355.20;;;;;;5037676;28;20021;-78
2022/09/29 06:07:44;;;;;;;8.68;4.60;;;410.30;2355.20;;;;;;5038109;28;20117;-79
2022/09/29 06:10:10;;;;;;;10.00;5.18;;;410.30;2355.20;;;;;;5053931;28;20055;-78
2022/09/29 06:12:36;;;;;;;10.18;5.10;;;410.30;2355.20;;;;;;5070872;28;20398;-78
2022/09/29 06:15:05;;;;;;;10.02;5.72;;;410.30;2355.20;;;;;;5054413;28;20029;-78
2022/09/29 06:17:31;;;;;;;10.25;5.70;;;410.30;2355.20;;;;;;5055054;28;20025;-78
2022/09/29 06:19:57;;;;;;;11.85;6.00;;;410.30;2355.20;;;;;;5037563;28;20021;-78
2022/09/29 06:22:23;;;;;;;13.00;6.68;;;410.40;2355.20;;;;;;5070663;28;20043;-78
2022/09/29 06:24:49;;;;;;;21.33;13.15;;;410.40;2355.20;;;;;;5037090;28;20421;-78
2022/09/29 06:27:16;;;;;;;21.48;12.57;;;410.40;2355.20;;;;;;5037227;28;20040;-79
2022/09/29 06:29:42;;;;;;;28.23;14.32;;;410.30;2355.20;;;;;;5055186;28;20415;-79
2022/09/29 06:32:08;;;;;;;25.20;15.73;;;410.30;2355.20;;;;;;5035882;28;20060;-78
2022/09/29 06:34:33;;;;;;;31.23;14.82;;;410.30;2355.20;;;;;;5055165;28;20033;-78
2022/09/29 06:39:43;;;;;;;18.73;12.77;;;410.30;2355.20;;;;;;5054503;28;20079;-78
2022/09/29 06:42:09;;;;;;;16.30;9.38;;;410.40;2355.20;;;;;;5036958;28;20025;-79
2022/09/29 06:44:35;;;;;;;19.80;7.68;;;410.40;2355.20;;;;;;5036847;28;20049;-79
2022/09/29 06:47:01;;;;;;;13.63;7.20;;;410.40;2355.20;;;;;;5036645;28;20033;-79
2022/09/29 06:49:27;;;;;;;12.07;7.18;;;410.30;2150.40;;;;;;5036918;28;20087;-79
2022/09/29 06:51:53;;;;;;;14.40;7.95;;;410.30;2022.40;;;;;;5054205;28;20029;-79
2022/09/29 06:54:21;;;;;;;15.40;7.47;;;410.40;2355.20;;;;;;5036719;28;20064;-78
2022/09/29 06:56:48;;;;;;;11.57;7.50;;;410.50;2355.20;;;;;;5078652;28;20089;-79
2022/09/29 06:59:14;;;;;;;11.52;7.75;;;410.50;2355.20;;;;;;5061532;28;20041;-78
2022/09/29 07:01:40;;;;;;;13.30;8.13;;;410.50;2355.20;;;;;;5048320;28;20056;-79
2022/09/29 07:04:06;;;;;;;14.15;9.93;;;410.50;2355.20;;;;;;5053528;28;20450;-79
2022/09/29 07:06:32;;;;;;;14.93;10.90;;;410.40;2124.80;;;;;;5035361;28;20082;-79
2022/09/29 07:09:00;;;;;;;20.88;14.05;;;410.50;1996.80;;;;;;5035913;28;20421;-79
2022/09/29 07:11:25;;;;;;;18.23;13.55;;;410.50;2355.20;;;;;;5036436;28;20400;-79
2022/09/29 07:13:52;;;;;;;24.13;15.75;;;410.50;2355.20;;;;;;5053967;28;20108;-78
2022/09/29 07:16:18;;;;;;;24.58;12.30;;;410.50;2355.20;;;;;;5036422;28;20039;-79
2022/09/29 07:18:45;;;;;;;20.10;11.80;;;410.50;2355.20;;;;;;5036351;28;20466;-78
2022/09/29 07:21:16;;;;;;;12.57;9.98;;;410.50;2355.20;;;;;;5053923;28;20060;-79
2022/09/29 07:23:43;;;;;;;15.27;9.27;;;410.50;2355.20;;;;;;5036261;28;20028;-79
2022/09/29 07:26:10;;;;;;;13.07;8.75;;;410.50;2355.20;;;;;;5036018;28;20128;-79
2022/09/29 07:28:36;;;;;;;13.73;8.85;;;410.50;2355.20;;;;;;5053781;28;20029;-78
2022/09/29 07:31:03;;;;;;;18.23;9.57;;;410.50;2355.20;;;;;;5054186;28;20028;-79
2022/09/29 07:33:30;;;;;;;15.23;10.93;;;410.50;2355.20;;;;;;5069374;28;20052;-79
2022/09/29 07:35:58;;;;;;;20.67;12.85;;;410.40;2355.20;;;;;;5035692;28;20492;-79
2022/09/29 07:38:24;;;;;;;18.05;12.10;;;410.30;2355.20;;;;;;5035834;28;20036;-79
2022/09/29 07:40:50;;;;;;;16.27;13.02;;;410.40;2355.20;;;;;;5053472;28;20031;-79
2022/09/29 07:43:16;;;;;;;32.00;20.85;;;410.50;2355.20;;;;;;5032126;28;20049;-79
2022/09/29 07:45:49;;;;;;;29.27;22.63;;;410.30;2355.20;;;;;;5032250;28;20080;-81
2022/09/29 07:48:16;;;;;;;34.03;24.85;;;410.50;2355.20;;;;;;5040775;28;20021;-85
2022/09/29 07:50:43;;;;;;;34.88;26.23;;;410.50;2355.20;;;;;;5052312;28;20467;-80
2022/09/29 07:53:09;;;;;;;34.40;24.30;;;435.20;2355.20;;;;;;5051210;28;20050;-80
2022/09/29 07:55:35;;;;;;;40.38;31.40;;;410.50;2355.20;;;;;;5052028;28;20040;-82
2022/09/29 07:58:01;;;;;;;43.65;30.95;;;435.20;2355.20;;;;;;5052421;28;20029;-80
2022/09/29 08:00:32;;;;;;;39.42;32.45;;;435.20;2355.20;;;;;;5052383;28;20104;-81
2022/09/29 08:03:06;;;;;;;38.60;27.45;;;435.20;2355.20;;;;;;5052093;28;20124;-81
2022/09/29 08:05:33;;;;;;;37.95;27.48;;;435.30;2355.20;;;;;;5045354;28;20041;-80
2022/09/29 08:08:07;;;;;;;50.85;34.30;;;435.30;2355.20;;;;;;5031490;28;20079;-80
2022/09/29 08:10:34;;;;;;;54.28;35.03;;;435.20;2355.20;;;;;;5031138;28;20426;-80
2022/09/29 08:13:00;;;;;;;48.67;35.90;;;435.20;2355.20;;;;;;5032500;28;20030;-81
2022/09/29 08:15:26;;;;;;;57.33;39.65;;;435.30;2355.20;;;;;;5031341;28;20477;-81
2022/09/29 08:17:53;;;;;;;56.47;37.60;;;435.40;2355.20;;;;;;5033175;28;20025;-81
2022/09/29 08:20:20;;;;;;;48.08;34.55;;;435.40;2355.20;;;;;;5032109;28;20047;-80
2022/09/29 08:22:47;;;;;;;53.97;32.80;;;435.60;2355.20;;;;;;5029792;28;20463;-81
2022/09/29 08:25:13;;;;;;;41.35;27.80;;;435.50;2355.20;;;;;;5032382;28;20108;-81
2022/09/29 08:27:39;;;;;;;25.40;19.80;;;435.60;2355.20;;;;;;5031458;28;20120;-80
2022/09/29 08:30:06;;;;;;;26.25;19.52;;;435.60;2355.20;;;;;;5030459;28;20128;-80
2022/09/29 08:32:32;;;;;;;29.50;22.38;;;435.70;2355.20;;;;;;5031849;28;20095;-80
2022/09/29 08:34:57;;;;;;;32.35;24.15;;;435.80;2355.20;;;;;;5031623;28;20025;-80
2022/09/29 08:37:23;;;;;;;34.38;23.77;;;435.90;2355.20;;;;;;5031685;28;20037;-80
2022/09/29 08:39:49;;;;;;;34.42;24.95;;;435.90;2355.20;;;;;;5034760;28;20045;-79
2022/09/29 08:42:36;;;;;;;34.33;26.77;;;436.00;2355.20;;;;;;5035881;28;20391;-80
2022/09/29 08:45:09;;;;;;;38.75;30.50;;;436.10;2355.20;;;;;;5035918;28;20065;-82
2022/09/29 08:47:36;;;;;;;;;;;436.10;2355.20;;;;;;5035339;28;20041;-82
2022/09/29 08:50:13;;;;;;;43.95;27.50;;;436.10;2355.20;;;;;;5037386;28;20373;-82
2022/09/29 08:52:46;;;;;;;38.45;24.25;;;460.80;2380.80;;;;;;5034626;28;20022;-82
2022/09/29 08:55:15;;;;;;;29.80;19.65;;;460.80;2380.80;;;;;;5035277;28;20030;-82
2022/09/29 08:57:41;;;;;;;24.05;18.63;;;461.00;2380.80;;;;;;5035271;28;20029;-81
2022/09/29 09:00:14;;;;;;;25.83;20.35;;;461.10;2380.80;;;;;;5035486;28;20025;-81
2022/09/29 09:03:09;;;;;;;28.88;21.55;;;461.00;2380.80;;;;;;5035281;28;20075;-81
2022/09/29 09:06:11;;;;;;;33.47;28.65;;;460.90;2380.80;;;;;;5034719;28;20036;-82
2022/09/29 09:08:56;;;;;;;22.38;19.10;;;460.90;2380.80;;;;;;5034993;28;20030;-81
2022/09/29 09:11:22;;;;;;;25.63;17.65;;;460.80;2099.20;;;;;;5035468;28;20030;-82
2022/09/29 09:13:54;;;;;;;19.15;13.30;;;436.10;2355.20;;;;;;5035297;28;20030;-80
2022/09/29 09:16:41;;;;;;;16.02;11.40;;;436.10;2355.20;;;;;;5034920;28;20033;-80
2022/09/29 09:19:27;;;;;;;17.20;11.13;;;436.00;2355.20;;;;;;5036808;28;20416;-79
2022/09/29 09:22:21;;;;;;;16.70;11.40;;;436.10;2355.20;;;;;;5035174;28;20474;-80
2022/09/29 09:25:27;;;;;;;21.38;13.63;;;436.10;2355.20;;;;;;5025460;28;20073;-80
2022/09/29 09:28:05;;;;;;;13.98;8.55;;;460.80;2380.80;;;;;;5015113;28;20033;-80
2022/09/29 09:30:43;;;;;;;13.77;8.07;;;436.10;2355.20;;;;;;5037987;28;20010;-80
2022/09/29 09:33:39;;;;;;;10.30;6.47;;;436.10;2355.20;;;;;;5055831;28;20021;-80
2022/09/29 09:36:11;;;;;;;18.17;8.20;;;436.10;2355.20;;;;;;5014481;28;20133;-80
2022/09/29 09:38:50;;;;;;;14.85;8.40;;;436.10;2355.20;;;;;;5031291;28;20026;-80
2022/09/29 09:41:23;;;;;;;17.85;13.20;;;460.80;2380.80;;;;;;5016705;28;20117;-80
2022/09/29 09:43:55;;;;;;;15.80;9.73;;;460.80;2380.80;;;;;;5014564;28;20430;-80
2022/09/29 09:46:56;;;;;;;17.00;11.25;;;460.80;2380.80;;;;;;5031941;28;20534;-81
2022/09/29 09:49:30;;;;;;;13.07;9.45;;;460.80;2380.80;;;;;;5036001;28;20041;-81
2022/09/29 09:52:02;;;;;;;22.52;14.45;;;460.90;2380.80;;;;;;5052871;28;20048;-80
2022/09/29 09:54:57;;;;;;;23.90;14.70;;;460.90;2380.80;;;;;;5053927;28;20471;-80
2022/09/29 09:57:46;;;;;;;23.15;16.38;;;461.10;2380.80;;;;;;5053753;28;20039;-81
2022/09/29 10:00:25;;;;;;;23.05;16.90;;;461.20;2380.80;;;;;;5054654;28;20510;-81
2022/09/29 10:02:56;;;;;;;24.13;15.52;;;461.10;2380.80;;;;;;5054536;28;20095;-81
2022/09/29 10:05:29;;;;;;;25.27;17.50;;;461.10;2380.80;;;;;;5055459;28;20028;-81
2022/09/29 10:07:55;;;;;;;28.10;17.80;;;;;;;;;;5054474;28;20022;-81
2022/09/29 10:10:23;;;;;;;27.35;20.10;;;;;;;;;;5054289;28;20049;-81
2022/09/29 10:13:05;;;;;;;21.52;14.55;;;461.30;2380.80;;;;;;5053788;28;20024;-81
2022/09/29 10:15:37;;;;;;;24.63;19.38;;;461.10;2380.80;;;;;;5054277;28;20115;-81
2022/09/29 10:18:20;;;;;;;24.33;20.50;;;461.10;2380.80;;;;;;5054091;28;20029;-81
2022/09/29 10:20:46;;;;;;;24.30;19.30;;;461.10;2380.80;;;;;;5054203;28;20029;-81
2022/09/29 10:23:27;;;;;;;26.73;17.92;;;461.20;2380.80;;;;;;5054895;28;20035;-81
2022/09/29 10:26:06;;;;;;;23.50;16.23;;;461.10;2380.80;;;;;;5053527;28;20060;-81
2022/09/29 10:28:49;;;;;;;21.77;16.85;;;461.40;2380.80;;;;;;5054964;28;20108;-81
2022/09/29 10:31:32;;;;;;;;;;;461.20;2380.80;;;;;;5054323;28;20064;-81
2022/09/29 10:34:22;;;;;;;30.00;21.67;;;461.30;2380.80;;;;;;5053550;28;20348;-80
2022/09/29 10:36:55;;;;;;;29.75;21.15;;;461.20;2380.80;;;;;;5053769;28;20033;-82
2022/09/29 10:39:41;;;;;;;36.72;21.73;;;461.20;2380.80;;;;;;5053416;28;20029;-81
2022/09/29 10:42:24;;;;;;;25.98;20.95;;;461.20;2380.80;;;;;;5055020;28;20064;-81
2022/09/29 10:45:13;;;;;;;32.80;23.60;;;461.30;2380.80;;;;;;5053520;28;20048;-82
2022/09/29 10:47:41;;;;;;;33.55;25.67;;;461.30;2380.80;;;;;;5042509;28;20037;-81
2022/09/29 10:50:22;;;;;;;28.23;22.50;;;461.30;2380.80;;;;;;5054725;28;20103;-81
2022/09/29 10:52:55;;;;;;;28.02;20.38;;;461.40;2380.80;;;;;;5053427;28;20025;-81
2022/09/29 10:55:23;;;;;;;22.35;17.00;;;;;;;;;;5054759;28;20029;-81
2022/09/29 10:57:50;;;;;;;36.80;27.80;;;;;;;;;;5053303;28;20021;-81
2022/09/29 11:00:36;;;;;;;42.35;29.27;;;;;;;;;;5052879;28;20356;-80
2022/09/29 11:03:28;;;;;;;32.42;26.15;;;;;;;;;;5052627;28;20387;-82
2022/09/29 11:06:03;;;;;;;34.25;30.63;;;;;;;;;;5039205;28;20047;-82
2022/09/29 11:08:30;;;;;;;24.70;19.60;;;461.60;2099.20;;;;;;5013969;28;20037;-81
2022/09/29 11:11:08;;;;;;;30.20;21.27;;;461.40;2380.80;;;;;;5027647;28;20025;-80
2022/09/29 11:13:38;;;;;;;30.33;20.05;;;461.40;2380.80;;;;;;5034024;28;20029;-81
2022/09/29 11:16:14;;;;;;;29.48;21.17;;;461.40;2380.80;;;;;;5030794;28;20026;-81
2022/09/29 11:18:42;;;;;;;19.85;13.05;;;461.30;2380.80;;;;;;5033139;28;20111;-82
2022/09/29 11:21:20;;;;;;;23.25;12.98;;;461.30;2380.80;;;;;;5032924;28;20033;-82
2022/09/29 11:24:00;;;;;;;19.90;13.38;;;461.30;2380.80;;;;;;5034319;28;20378;-79
2022/09/29 11:26:42;;;;;;;20.83;14.10;;;461.40;2380.80;;;;;;5034077;28;20052;-77
2022/09/29 11:29:31;;;;;;;21.13;14.93;;;461.40;2380.80;;;;;;5032502;28;20523;-79
2022/09/29 11:32:18;;;;;;;21.40;13.73;;;461.50;2380.80;;;;;;5032808;28;20029;-80
2022/09/29 11:35:21;;;;;;;16.25;12.65;;;461.50;2380.80;;;;;;5032698;28;20029;-81
2022/09/29 11:38:19;;;;;;;17.73;14.10;;;461.50;2380.80;;;;;;4983457;28;20044;-80
2022/09/29 11:41:09;;;;;;;19.25;12.57;;;461.50;2380.80;;;;;;5032729;28;20083;-78
2022/09/29 11:43:49;;;;;;;21.17;14.43;;;461.70;2380.80;;;;;;5032190;28;20049;-82
2022/09/29 11:46:41;;;;;;;21.15;11.75;;;461.50;2380.80;;;;;;5032897;28;20493;-81
2022/09/29 11:49:22;;;;;;;18.35;12.40;;;461.60;2380.80;;;;;;5033000;28;20036;-82
2022/09/29 11:52:06;;;;;;;18.35;14.43;;;486.40;2380.80;;;;;;5032424;28;20072;-81
2022/09/29 11:54:58;;;;;;;23.05;17.17;;;486.50;2380.80;;;;;;5032841;28;20032;-85
2022/09/29 11:57:35;;;;;;;28.33;18.50;;;486.50;2380.80;;;;;;5032635;28;20060;-83
2022/09/29 12:00:08;;;;;;;18.90;14.65;;;486.40;2380.80;;;;;;5032531;28;20038;-82
2022/09/29 12:03:02;;;;;;;24.95;16.75;;;486.40;2380.80;;;;;;5032399;28;20021;-83
2022/09/29 12:05:48;;;;;;;15.00;11.35;;;486.40;2380.80;;;;;;5032468;28;20022;-82
2022/09/29 12:08:38;;;;;;;19.23;12.05;;;486.50;2380.80;;;;;;5033695;28;20030;-85
2022/09/29 12:11:33;;;;;;;31.73;24.63;;;486.70;2380.80;;;;;;5029095;28;20048;-83
2022/09/29 12:14:34;;;;;;;36.03;27.55;;;486.60;2380.80;;;;;;5030962;28;20026;-83
2022/09/29 12:17:04;;;;;;;42.13;30.55;;;;;;;;;;4989849;28;20488;-84
2022/09/29 12:19:35;;;;;;;43.38;34.17;;;486.90;2380.80;;;;;;5012801;28;20025;-82
2022/09/29 12:22:06;;;;;;;27.63;21.37;;;486.90;2380.80;;;;;;5026865;28;20380;-85
2022/09/29 12:24:40;;;;;;;28.38;19.75;;;486.90;2380.80;;;;;;5030933;28;20087;-83
2022/09/29 12:27:16;;;;;;;32.38;24.40;;;486.80;2380.80;;;;;;5031194;28;21186;-84
2022/09/29 12:29:56;;;;;;;28.83;19.95;;;486.90;2380.80;;;;;;5035199;28;20060;-81
2022/09/29 12:32:27;;;;;;;25.83;16.13;;;;;;;;;;5031599;28;20018;-81
2022/09/29 12:35:16;;;;;;;31.52;20.45;;;487.10;2380.80;;;;;;5029139;28;20109;-82
2022/09/29 12:37:52;;;;;;;37.28;26.45;;;;;;;;;;5025084;28;20036;-83
2022/09/29 12:40:38;;;;;;;44.75;31.02;;;487.10;2380.80;;;;;;5033397;28;20049;-83